sensor_id;sensor_type;location;lat;lon;timestamp;P1;durP1;ratioP1;P2;durP2;ratioP2
3563;SDS011;1796;52.388;13.096;2023-02-01T00:02:18;29.53;;;3.50;;
3563;SDS011;1796;52.388;13.096;2023-02-01T00:04:46;16.20;;;2.97;;
3563;SDS011;1796;52.388;13.096;2023-02-01T00:07:13;24.60;;;3.60;;
3563;SDS011;1796;52.388;13.096;2023-02-01T00:09:40;16.43;;;3.00;;
3563;SDS011;1796;52.388;13.096;2023-02-01T00:12:07;19.30;;;3.67;;
3563;SDS011;1796;52.388;13.096;2023-02-01T00:14:33;20.40;;;3.27;;
3563;SDS011;1796;52.388;13.096;2023-02-01T00:17:03;16.30;;;3.03;;
3563;SDS011;1796;52.388;13.096;2023-02-01T00:19:31;17.30;;;3.43;;
3563;SDS011;1796;52.388;13.096;2023-02-01T00:22:00;19.93;;;3.20;;
3563;SDS011;1796;52.388;13.096;2023-02-01T00:24:27;27.83;;;3.60;;
3563;SDS011;1796;52.388;13.096;2023-02-01T00:26:53;14.93;;;2.47;;
3563;SDS011;1796;52.388;13.096;2023-02-01T00:29:20;22.83;;;2.80;;
3563;SDS011;1796;52.388;13.096;2023-02-01T00:31:49;15.67;;;3.07;;
3563;SDS011;1796;52.388;13.096;2023-02-01T00:34:16;18.90;;;3.90;;
3563;SDS011;1796;52.388;13.096;2023-02-01T00:36:43;25.80;;;3.10;;
3563;SDS011;1796;52.388;13.096;2023-02-01T00:39:12;25.77;;;3.63;;
3563;SDS011;1796;52.388;13.096;2023-02-01T00:41:39;12.73;;;2.20;;
3563;SDS011;1796;52.388;13.096;2023-02-01T00:44:06;23.73;;;3.60;;
3563;SDS011;1796;52.388;13.096;2023-02-01T00:46:33;15.83;;;2.57;;
3563;SDS011;1796;52.388;13.096;2023-02-01T00:49:00;15.47;;;3.03;;
3563;SDS011;1796;52.388;13.096;2023-02-01T00:51:27;6.20;;;2.17;;
3563;SDS011;1796;52.388;13.096;2023-02-01T00:53:55;17.57;;;3.07;;
3563;SDS011;1796;52.388;13.096;2023-02-01T00:56:24;17.60;;;3.27;;
3563;SDS011;1796;52.388;13.096;2023-02-01T00:58:52;21.53;;;3.10;;
3563;SDS011;1796;52.388;13.096;2023-02-01T01:01:19;10.00;;;2.47;;
3563;SDS011;1796;52.388;13.096;2023-02-01T01:03:48;15.67;;;3.20;;
3563;SDS011;1796;52.388;13.096;2023-02-01T01:06:17;10.03;;;3.03;;
3563;SDS011;1796;52.388;13.096;2023-02-01T01:08:46;16.50;;;3.70;;
3563;SDS011;1796;52.388;13.096;2023-02-01T01:11:14;23.93;;;3.60;;
3563;SDS011;1796;52.388;13.096;2023-02-01T01:13:45;12.83;;;2.10;;
3563;SDS011;1796;52.388;13.096;2023-02-01T01:16:13;18.77;;;3.97;;
3563;SDS011;1796;52.388;13.096;2023-02-01T01:18:41;16.20;;;2.67;;
3563;SDS011;1796;52.388;13.096;2023-02-01T01:21:08;21.97;;;3.20;;
3563;SDS011;1796;52.388;13.096;2023-02-01T01:23:37;16.63;;;2.63;;
3563;SDS011;1796;52.388;13.096;2023-02-01T01:26:04;12.20;;;2.07;;
3563;SDS011;1796;52.388;13.096;2023-02-01T01:28:32;30.17;;;3.10;;
3563;SDS011;1796;52.388;13.096;2023-02-01T01:31:00;10.90;;;2.30;;
3563;SDS011;1796;52.388;13.096;2023-02-01T01:33:27;18.30;;;3.17;;
3563;SDS011;1796;52.388;13.096;2023-02-01T01:35:53;14.40;;;3.00;;
3563;SDS011;1796;52.388;13.096;2023-02-01T01:38:20;21.33;;;2.63;;
3563;SDS011;1796;52.388;13.096;2023-02-01T01:40:47;15.23;;;2.37;;
3563;SDS011;1796;52.388;13.096;2023-02-01T01:43:16;13.00;;;2.53;;
3563;SDS011;1796;52.388;13.096;2023-02-01T01:45:47;22.97;;;3.57;;
3563;SDS011;1796;52.388;13.096;2023-02-01T01:48:17;31.17;;;3.53;;
3563;SDS011;1796;52.388;13.096;2023-02-01T01:50:47;13.17;;;2.50;;
3563;SDS011;1796;52.388;13.096;2023-02-01T01:53:18;15.10;;;3.33;;
3563;SDS011;1796;52.388;13.096;2023-02-01T01:55:46;18.63;;;3.80;;
3563;SDS011;1796;52.388;13.096;2023-02-01T01:58:15;19.03;;;2.63;;
3563;SDS011;1796;52.388;13.096;2023-02-01T02:00:44;17.27;;;2.60;;
3563;SDS011;1796;52.388;13.096;2023-02-01T02:03:13;22.03;;;2.97;;
3563;SDS011;1796;52.388;13.096;2023-02-01T02:05:43;22.13;;;2.97;;
3563;SDS011;1796;52.388;13.096;2023-02-01T02:08:11;19.03;;;3.50;;
3563;SDS011;1796;52.388;13.096;2023-02-01T02:10:38;17.80;;;2.83;;
3563;SDS011;1796;52.388;13.096;2023-02-01T02:13:22;8.43;;;2.60;;
3563;SDS011;1796;52.388;13.096;2023-02-01T02:15:52;16.93;;;3.20;;
3563;SDS011;1796;52.388;13.096;2023-02-01T02:18:30;22.80;;;3.20;;
3563;SDS011;1796;52.388;13.096;2023-02-01T02:21:10;16.57;;;3.57;;
3563;SDS011;1796;52.388;13.096;2023-02-01T02:26:59;26.13;;;3.10;;
3563;SDS011;1796;52.388;13.096;2023-02-01T02:29:36;21.20;;;2.70;;
3563;SDS011;1796;52.388;13.096;2023-02-01T02:35:21;8.53;;;2.50;;
3563;SDS011;1796;52.388;13.096;2023-02-01T02:37:59;10.83;;;3.07;;
3563;SDS011;1796;52.388;13.096;2023-02-01T02:40:36;23.07;;;2.63;;
3563;SDS011;1796;52.388;13.096;2023-02-01T02:43:12;13.60;;;3.17;;
3563;SDS011;1796;52.388;13.096;2023-02-01T02:46:04;14.87;;;3.20;;
3563;SDS011;1796;52.388;13.096;2023-02-01T02:49:09;14.70;;;2.70;;
3563;SDS011;1796;52.388;13.096;2023-02-01T02:51:43;14.70;;;2.90;;
3563;SDS011;1796;52.388;13.096;2023-02-01T02:54:31;12.70;;;3.10;;
3563;SDS011;1796;52.388;13.096;2023-02-01T02:57:15;14.27;;;2.60;;
3563;SDS011;1796;52.388;13.096;2023-02-01T03:00:04;12.87;;;2.63;;
3563;SDS011;1796;52.388;13.096;2023-02-01T03:02:53;14.37;;;3.77;;
3563;SDS011;1796;52.388;13.096;2023-02-01T03:05:40;11.30;;;2.80;;
3563;SDS011;1796;52.388;13.096;2023-02-01T03:08:13;14.67;;;2.60;;
3563;SDS011;1796;52.388;13.096;2023-02-01T03:10:42;14.80;;;3.03;;
3563;SDS011;1796;52.388;13.096;2023-02-01T03:13:15;20.93;;;3.90;;
3563;SDS011;1796;52.388;13.096;2023-02-01T03:15:49;20.00;;;3.60;;
3563;SDS011;1796;52.388;13.096;2023-02-01T03:18:21;21.27;;;2.40;;
3563;SDS011;1796;52.388;13.096;2023-02-01T03:20:54;15.63;;;2.87;;
3563;SDS011;1796;52.388;13.096;2023-02-01T03:23:26;14.73;;;3.00;;
3563;SDS011;1796;52.388;13.096;2023-02-01T03:25:56;21.73;;;2.97;;
3563;SDS011;1796;52.388;13.096;2023-02-01T03:28:26;18.33;;;4.73;;
3563;SDS011;1796;52.388;13.096;2023-02-01T03:30:56;21.07;;;2.80;;
3563;SDS011;1796;52.388;13.096;2023-02-01T03:33:24;15.07;;;3.90;;
3563;SDS011;1796;52.388;13.096;2023-02-01T03:35:57;13.50;;;2.23;;
3563;SDS011;1796;52.388;13.096;2023-02-01T03:38:31;16.13;;;3.27;;
3563;SDS011;1796;52.388;13.096;2023-02-01T03:41:06;32.50;;;3.90;;
3563;SDS011;1796;52.388;13.096;2023-02-01T03:43:42;11.70;;;2.40;;
3563;SDS011;1796;52.388;13.096;2023-02-01T03:46:17;13.50;;;3.70;;
3563;SDS011;1796;52.388;13.096;2023-02-01T03:48:49;25.60;;;4.47;;
3563;SDS011;1796;52.388;13.096;2023-02-01T03:51:17;16.50;;;3.50;;
3563;SDS011;1796;52.388;13.096;2023-02-01T03:53:48;30.30;;;3.13;;
3563;SDS011;1796;52.388;13.096;2023-02-01T03:56:16;14.60;;;3.90;;
3563;SDS011;1796;52.388;13.096;2023-02-01T03:58:44;13.30;;;2.90;;
3563;SDS011;1796;52.388;13.096;2023-02-01T04:01:24;26.30;;;3.90;;
3563;SDS011;1796;52.388;13.096;2023-02-01T04:03:52;20.97;;;3.07;;
3563;SDS011;1796;52.388;13.096;2023-02-01T04:06:19;14.07;;;3.10;;
3563;SDS011;1796;52.388;13.096;2023-02-01T04:08:47;19.03;;;3.27;;
3563;SDS011;1796;52.388;13.096;2023-02-01T04:11:14;18.03;;;3.40;;
3563;SDS011;1796;52.388;13.096;2023-02-01T04:13:41;20.40;;;3.80;;
3563;SDS011;1796;52.388;13.096;2023-02-01T04:16:08;19.20;;;3.73;;
3563;SDS011;1796;52.388;13.096;2023-02-01T04:18:36;22.97;;;2.93;;
3563;SDS011;1796;52.388;13.096;2023-02-01T04:21:03;19.40;;;3.33;;
3563;SDS011;1796;52.388;13.096;2023-02-01T04:23:30;19.63;;;3.73;;
3563;SDS011;1796;52.388;13.096;2023-02-01T04:26:02;15.70;;;3.00;;
3563;SDS011;1796;52.388;13.096;2023-02-01T04:28:30;13.93;;;3.53;;
3563;SDS011;1796;52.388;13.096;2023-02-01T04:30:57;19.57;;;3.40;;
3563;SDS011;1796;52.388;13.096;2023-02-01T04:33:24;23.17;;;3.83;;
3563;SDS011;1796;52.388;13.096;2023-02-01T04:35:51;16.63;;;3.60;;
3563;SDS011;1796;52.388;13.096;2023-02-01T04:38:18;16.87;;;2.63;;
3563;SDS011;1796;52.388;13.096;2023-02-01T04:40:46;17.10;;;3.40;;
3563;SDS011;1796;52.388;13.096;2023-02-01T04:43:15;9.70;;;2.50;;
3563;SDS011;1796;52.388;13.096;2023-02-01T04:45:46;18.93;;;3.30;;
3563;SDS011;1796;52.388;13.096;2023-02-01T04:48:13;18.33;;;3.30;;
3563;SDS011;1796;52.388;13.096;2023-02-01T04:50:41;13.57;;;3.00;;
3563;SDS011;1796;52.388;13.096;2023-02-01T04:53:10;14.30;;;4.00;;
3563;SDS011;1796;52.388;13.096;2023-02-01T04:55:37;17.60;;;2.93;;
3563;SDS011;1796;52.388;13.096;2023-02-01T04:58:03;18.83;;;3.67;;
3563;SDS011;1796;52.388;13.096;2023-02-01T05:00:32;17.87;;;2.63;;
3563;SDS011;1796;52.388;13.096;2023-02-01T05:02:59;20.97;;;4.50;;
3563;SDS011;1796;52.388;13.096;2023-02-01T05:05:26;17.63;;;3.43;;
3563;SDS011;1796;52.388;13.096;2023-02-01T05:07:53;17.10;;;2.90;;
3563;SDS011;1796;52.388;13.096;2023-02-01T05:10:20;18.23;;;3.63;;
3563;SDS011;1796;52.388;13.096;2023-02-01T05:12:47;23.30;;;2.93;;
3563;SDS011;1796;52.388;13.096;2023-02-01T05:15:33;19.00;;;3.07;;
3563;SDS011;1796;52.388;13.096;2023-02-01T05:18:00;25.93;;;4.67;;
3563;SDS011;1796;52.388;13.096;2023-02-01T05:20:26;21.03;;;3.67;;
3563;SDS011;1796;52.388;13.096;2023-02-01T05:22:53;11.50;;;3.50;;
3563;SDS011;1796;52.388;13.096;2023-02-01T05:25:20;16.93;;;3.00;;
3563;SDS011;1796;52.388;13.096;2023-02-01T05:27:47;23.17;;;3.77;;
3563;SDS011;1796;52.388;13.096;2023-02-01T05:30:14;16.17;;;3.10;;
3563;SDS011;1796;52.388;13.096;2023-02-01T05:32:43;16.67;;;3.77;;
3563;SDS011;1796;52.388;13.096;2023-02-01T05:35:10;16.77;;;2.87;;
3563;SDS011;1796;52.388;13.096;2023-02-01T05:37:37;20.80;;;3.40;;
3563;SDS011;1796;52.388;13.096;2023-02-01T05:40:04;20.40;;;3.40;;
3563;SDS011;1796;52.388;13.096;2023-02-01T05:42:31;16.10;;;3.03;;
3563;SDS011;1796;52.388;13.096;2023-02-01T05:44:58;30.30;;;3.67;;
3563;SDS011;1796;52.388;13.096;2023-02-01T05:47:25;24.07;;;3.50;;
3563;SDS011;1796;52.388;13.096;2023-02-01T05:49:53;20.57;;;3.20;;
3563;SDS011;1796;52.388;13.096;2023-02-01T05:52:20;26.83;;;3.57;;
3563;SDS011;1796;52.388;13.096;2023-02-01T05:54:47;19.23;;;3.33;;
3563;SDS011;1796;52.388;13.096;2023-02-01T05:57:14;10.53;;;2.93;;
3563;SDS011;1796;52.388;13.096;2023-02-01T05:59:42;14.10;;;3.80;;
3563;SDS011;1796;52.388;13.096;2023-02-01T06:02:10;30.63;;;3.67;;
3563;SDS011;1796;52.388;13.096;2023-02-01T06:04:38;18.10;;;3.97;;
3563;SDS011;1796;52.388;13.096;2023-02-01T06:07:06;20.83;;;3.80;;
3563;SDS011;1796;52.388;13.096;2023-02-01T06:09:35;12.27;;;3.17;;
3563;SDS011;1796;52.388;13.096;2023-02-01T06:12:03;11.93;;;3.03;;
3563;SDS011;1796;52.388;13.096;2023-02-01T06:14:30;16.83;;;3.53;;
3563;SDS011;1796;52.388;13.096;2023-02-01T06:16:57;32.40;;;4.60;;
3563;SDS011;1796;52.388;13.096;2023-02-01T06:19:24;26.10;;;3.80;;
3563;SDS011;1796;52.388;13.096;2023-02-01T06:21:51;11.37;;;3.23;;
3563;SDS011;1796;52.388;13.096;2023-02-01T06:24:19;20.33;;;3.17;;
3563;SDS011;1796;52.388;13.096;2023-02-01T06:26:46;16.57;;;3.00;;
3563;SDS011;1796;52.388;13.096;2023-02-01T06:29:15;18.93;;;4.03;;
3563;SDS011;1796;52.388;13.096;2023-02-01T06:31:42;25.87;;;4.67;;
3563;SDS011;1796;52.388;13.096;2023-02-01T06:37:31;20.47;;;4.13;;
3563;SDS011;1796;52.388;13.096;2023-02-01T06:40:13;18.97;;;2.53;;
3563;SDS011;1796;52.388;13.096;2023-02-01T06:42:41;15.93;;;3.67;;
3563;SDS011;1796;52.388;13.096;2023-02-01T06:45:08;17.40;;;3.13;;
3563;SDS011;1796;52.388;13.096;2023-02-01T06:47:35;26.80;;;3.97;;
3563;SDS011;1796;52.388;13.096;2023-02-01T06:50:02;10.10;;;3.47;;
3563;SDS011;1796;52.388;13.096;2023-02-01T06:52:30;18.70;;;3.37;;
3563;SDS011;1796;52.388;13.096;2023-02-01T06:54:57;11.83;;;3.13;;
3563;SDS011;1796;52.388;13.096;2023-02-01T06:57:25;27.43;;;3.80;;
3563;SDS011;1796;52.388;13.096;2023-02-01T06:59:55;13.63;;;2.40;;
3563;SDS011;1796;52.388;13.096;2023-02-01T07:02:23;20.13;;;3.67;;
3563;SDS011;1796;52.388;13.096;2023-02-01T07:04:50;16.50;;;3.17;;
3563;SDS011;1796;52.388;13.096;2023-02-01T07:07:17;19.33;;;2.70;;
3563;SDS011;1796;52.388;13.096;2023-02-01T07:09:44;18.90;;;4.60;;
3563;SDS011;1796;52.388;13.096;2023-02-01T07:12:11;21.80;;;4.00;;
3563;SDS011;1796;52.388;13.096;2023-02-01T07:14:39;24.03;;;3.10;;
3563;SDS011;1796;52.388;13.096;2023-02-01T07:17:06;13.77;;;2.83;;
3563;SDS011;1796;52.388;13.096;2023-02-01T07:19:33;19.13;;;3.40;;
3563;SDS011;1796;52.388;13.096;2023-02-01T07:22:00;15.30;;;3.57;;
3563;SDS011;1796;52.388;13.096;2023-02-01T07:24:27;16.20;;;3.20;;
3563;SDS011;1796;52.388;13.096;2023-02-01T07:26:55;34.63;;;4.07;;
3563;SDS011;1796;52.388;13.096;2023-02-01T07:29:22;14.23;;;3.67;;
3563;SDS011;1796;52.388;13.096;2023-02-01T07:31:50;8.07;;;2.90;;
3563;SDS011;1796;52.388;13.096;2023-02-01T07:34:18;10.90;;;2.90;;
3563;SDS011;1796;52.388;13.096;2023-02-01T07:36:44;20.60;;;3.33;;
3563;SDS011;1796;52.388;13.096;2023-02-01T07:39:11;11.53;;;3.57;;
3563;SDS011;1796;52.388;13.096;2023-02-01T07:41:38;15.77;;;3.07;;
3563;SDS011;1796;52.388;13.096;2023-02-01T07:44:05;25.93;;;4.23;;
3563;SDS011;1796;52.388;13.096;2023-02-01T07:46:32;16.73;;;3.70;;
3563;SDS011;1796;52.388;13.096;2023-02-01T07:49:00;19.43;;;3.40;;
3563;SDS011;1796;52.388;13.096;2023-02-01T07:51:27;22.13;;;4.47;;
3563;SDS011;1796;52.388;13.096;2023-02-01T07:53:54;25.87;;;3.40;;
3563;SDS011;1796;52.388;13.096;2023-02-01T07:56:21;13.10;;;3.10;;
3563;SDS011;1796;52.388;13.096;2023-02-01T07:58:49;13.33;;;3.80;;
3563;SDS011;1796;52.388;13.096;2023-02-01T08:01:16;13.77;;;3.30;;
3563;SDS011;1796;52.388;13.096;2023-02-01T08:03:50;26.00;;;3.90;;
3563;SDS011;1796;52.388;13.096;2023-02-01T08:06:19;17.13;;;3.60;;
3563;SDS011;1796;52.388;13.096;2023-02-01T08:08:46;8.33;;;2.90;;
3563;SDS011;1796;52.388;13.096;2023-02-01T08:11:17;11.50;;;3.20;;
3563;SDS011;1796;52.388;13.096;2023-02-01T08:13:45;14.40;;;3.73;;
3563;SDS011;1796;52.388;13.096;2023-02-01T08:16:13;10.60;;;3.17;;
3563;SDS011;1796;52.388;13.096;2023-02-01T08:18:42;19.57;;;3.20;;
3563;SDS011;1796;52.388;13.096;2023-02-01T08:21:10;17.57;;;3.83;;
3563;SDS011;1796;52.388;13.096;2023-02-01T08:23:40;23.73;;;4.00;;
3563;SDS011;1796;52.388;13.096;2023-02-01T08:26:08;13.73;;;3.80;;
3563;SDS011;1796;52.388;13.096;2023-02-01T08:28:37;13.53;;;4.57;;
3563;SDS011;1796;52.388;13.096;2023-02-01T08:31:05;16.67;;;3.70;;
3563;SDS011;1796;52.388;13.096;2023-02-01T08:33:33;9.10;;;3.57;;
3563;SDS011;1796;52.388;13.096;2023-02-01T08:36:01;8.50;;;2.83;;
3563;SDS011;1796;52.388;13.096;2023-02-01T08:38:29;13.40;;;3.80;;
3563;SDS011;1796;52.388;13.096;2023-02-01T08:40:57;9.90;;;3.53;;
3563;SDS011;1796;52.388;13.096;2023-02-01T08:43:24;7.17;;;2.57;;
3563;SDS011;1796;52.388;13.096;2023-02-01T08:45:53;11.00;;;2.90;;
3563;SDS011;1796;52.388;13.096;2023-02-01T08:48:21;8.97;;;2.63;;
3563;SDS011;1796;52.388;13.096;2023-02-01T08:50:48;5.23;;;2.37;;
3563;SDS011;1796;52.388;13.096;2023-02-01T08:53:17;11.83;;;2.37;;
3563;SDS011;1796;52.388;13.096;2023-02-01T08:55:46;3.40;;;1.97;;
3563;SDS011;1796;52.388;13.096;2023-02-01T08:58:15;2.40;;;1.93;;
3563;SDS011;1796;52.388;13.096;2023-02-01T09:00:42;5.20;;;2.23;;
3563;SDS011;1796;52.388;13.096;2023-02-01T09:03:10;9.17;;;2.10;;
3563;SDS011;1796;52.388;13.096;2023-02-01T09:05:38;6.77;;;2.50;;
3563;SDS011;1796;52.388;13.096;2023-02-01T09:08:05;9.50;;;2.30;;
3563;SDS011;1796;52.388;13.096;2023-02-01T09:10:33;4.90;;;2.03;;
3563;SDS011;1796;52.388;13.096;2023-02-01T09:13:00;5.97;;;2.70;;
3563;SDS011;1796;52.388;13.096;2023-02-01T09:15:29;9.90;;;2.63;;
3563;SDS011;1796;52.388;13.096;2023-02-01T09:17:56;6.53;;;2.60;;
3563;SDS011;1796;52.388;13.096;2023-02-01T09:20:23;3.40;;;2.13;;
3563;SDS011;1796;52.388;13.096;2023-02-01T09:22:50;4.67;;;1.90;;
3563;SDS011;1796;52.388;13.096;2023-02-01T09:25:17;6.63;;;2.43;;
3563;SDS011;1796;52.388;13.096;2023-02-01T09:27:44;7.83;;;2.57;;
3563;SDS011;1796;52.388;13.096;2023-02-01T09:30:11;8.90;;;2.40;;
3563;SDS011;1796;52.388;13.096;2023-02-01T09:32:40;3.90;;;1.53;;
3563;SDS011;1796;52.388;13.096;2023-02-01T09:35:07;2.40;;;1.40;;
3563;SDS011;1796;52.388;13.096;2023-02-01T09:37:34;5.03;;;2.17;;
3563;SDS011;1796;52.388;13.096;2023-02-01T09:40:02;7.10;;;1.73;;
3563;SDS011;1796;52.388;13.096;2023-02-01T09:42:49;4.73;;;1.63;;
3563;SDS011;1796;52.388;13.096;2023-02-01T09:45:27;2.97;;;1.60;;
3563;SDS011;1796;52.388;13.096;2023-02-01T09:48:07;4.10;;;1.50;;
3563;SDS011;1796;52.388;13.096;2023-02-01T09:50:37;2.37;;;2.13;;
3563;SDS011;1796;52.388;13.096;2023-02-01T09:53:06;2.37;;;1.67;;
3563;SDS011;1796;52.388;13.096;2023-02-01T09:55:42;3.93;;;1.33;;
3563;SDS011;1796;52.388;13.096;2023-02-01T09:58:13;2.40;;;1.37;;
3563;SDS011;1796;52.388;13.096;2023-02-01T10:00:47;1.30;;;1.20;;
3563;SDS011;1796;52.388;13.096;2023-02-01T10:03:19;10.77;;;1.33;;
3563;SDS011;1796;52.388;13.096;2023-02-01T10:05:54;3.07;;;1.10;;
3563;SDS011;1796;52.388;13.096;2023-02-01T10:08:33;7.23;;;1.63;;
3563;SDS011;1796;52.388;13.096;2023-02-01T10:11:18;4.17;;;1.73;;
3563;SDS011;1796;52.388;13.096;2023-02-01T10:13:58;4.30;;;1.77;;
3563;SDS011;1796;52.388;13.096;2023-02-01T10:16:36;4.03;;;2.03;;
3563;SDS011;1796;52.388;13.096;2023-02-01T10:19:15;7.70;;;2.23;;
3563;SDS011;1796;52.388;13.096;2023-02-01T10:21:54;2.40;;;1.20;;
3563;SDS011;1796;52.388;13.096;2023-02-01T10:26:54;1.93;;;0.90;;
3563;SDS011;1796;52.388;13.096;2023-02-01T10:29:26;1.23;;;0.97;;
3563;SDS011;1796;52.388;13.096;2023-02-01T10:32:03;3.13;;;1.20;;
3563;SDS011;1796;52.388;13.096;2023-02-01T10:34:40;1.83;;;1.10;;
3563;SDS011;1796;52.388;13.096;2023-02-01T10:37:11;4.00;;;1.47;;
3563;SDS011;1796;52.388;13.096;2023-02-01T10:39:46;2.10;;;1.10;;
3563;SDS011;1796;52.388;13.096;2023-02-01T10:42:14;3.87;;;1.47;;
3563;SDS011;1796;52.388;13.096;2023-02-01T10:44:43;3.23;;;1.20;;
3563;SDS011;1796;52.388;13.096;2023-02-01T10:47:13;2.47;;;1.20;;
3563;SDS011;1796;52.388;13.096;2023-02-01T10:49:43;10.50;;;1.50;;
3563;SDS011;1796;52.388;13.096;2023-02-01T10:52:16;7.13;;;1.30;;
3563;SDS011;1796;52.388;13.096;2023-02-01T10:54:47;2.87;;;1.97;;
3563;SDS011;1796;52.388;13.096;2023-02-01T10:57:19;19.47;;;1.83;;
3563;SDS011;1796;52.388;13.096;2023-02-01T10:59:49;4.13;;;1.87;;
3563;SDS011;1796;52.388;13.096;2023-02-01T11:02:19;6.03;;;1.57;;
3563;SDS011;1796;52.388;13.096;2023-02-01T11:04:59;7.93;;;1.80;;
3563;SDS011;1796;52.388;13.096;2023-02-01T11:07:27;5.30;;;1.73;;
3563;SDS011;1796;52.388;13.096;2023-02-01T11:09:55;3.00;;;1.30;;
3563;SDS011;1796;52.388;13.096;2023-02-01T11:12:32;4.73;;;1.77;;
3563;SDS011;1796;52.388;13.096;2023-02-01T11:15:03;6.00;;;1.90;;
3563;SDS011;1796;52.388;13.096;2023-02-01T11:17:41;7.63;;;1.87;;
3563;SDS011;1796;52.388;13.096;2023-02-01T11:20:14;8.37;;;1.97;;
3563;SDS011;1796;52.388;13.096;2023-02-01T11:22:45;3.80;;;1.60;;
3563;SDS011;1796;52.388;13.096;2023-02-01T11:25:14;3.90;;;1.60;;
3563;SDS011;1796;52.388;13.096;2023-02-01T11:27:43;10.70;;;2.10;;
3563;SDS011;1796;52.388;13.096;2023-02-01T11:30:14;10.50;;;1.53;;
3563;SDS011;1796;52.388;13.096;2023-02-01T11:32:44;4.10;;;1.70;;
3563;SDS011;1796;52.388;13.096;2023-02-01T11:35:15;4.07;;;2.00;;
3563;SDS011;1796;52.388;13.096;2023-02-01T11:37:45;15.33;;;2.27;;
3563;SDS011;1796;52.388;13.096;2023-02-01T11:40:28;4.73;;;1.30;;
3563;SDS011;1796;52.388;13.096;2023-02-01T11:43:01;13.93;;;2.00;;
3563;SDS011;1796;52.388;13.096;2023-02-01T11:45:34;3.17;;;1.43;;
3563;SDS011;1796;52.388;13.096;2023-02-01T11:48:06;9.20;;;2.10;;
3563;SDS011;1796;52.388;13.096;2023-02-01T11:50:39;4.70;;;2.13;;
3563;SDS011;1796;52.388;13.096;2023-02-01T11:53:20;12.73;;;2.53;;
3563;SDS011;1796;52.388;13.096;2023-02-01T11:56:00;8.93;;;2.13;;
3563;SDS011;1796;52.388;13.096;2023-02-01T11:58:41;15.87;;;2.50;;
3563;SDS011;1796;52.388;13.096;2023-02-01T12:01:34;6.80;;;1.60;;
3563;SDS011;1796;52.388;13.096;2023-02-01T12:04:19;5.77;;;1.80;;
3563;SDS011;1796;52.388;13.096;2023-02-01T12:07:13;7.67;;;2.23;;
3563;SDS011;1796;52.388;13.096;2023-02-01T12:09:47;7.83;;;1.93;;
3563;SDS011;1796;52.388;13.096;2023-02-01T12:12:24;16.37;;;2.37;;
3563;SDS011;1796;52.388;13.096;2023-02-01T12:15:19;8.83;;;2.63;;
3563;SDS011;1796;52.388;13.096;2023-02-01T12:21:04;7.03;;;2.57;;
3563;SDS011;1796;52.388;13.096;2023-02-01T12:23:42;8.43;;;1.67;;
3563;SDS011;1796;52.388;13.096;2023-02-01T12:32:05;5.00;;;1.80;;
3563;SDS011;1796;52.388;13.096;2023-02-01T12:37:41;5.90;;;1.60;;
3563;SDS011;1796;52.388;13.096;2023-02-01T12:40:24;6.60;;;2.00;;
3563;SDS011;1796;52.388;13.096;2023-02-01T12:43:04;4.50;;;2.10;;
3563;SDS011;1796;52.388;13.096;2023-02-01T12:45:37;9.33;;;2.00;;
3563;SDS011;1796;52.388;13.096;2023-02-01T12:50:55;5.37;;;1.90;;
3563;SDS011;1796;52.388;13.096;2023-02-01T12:53:26;5.13;;;1.70;;
3563;SDS011;1796;52.388;13.096;2023-02-01T12:56:00;3.27;;;1.20;;
3563;SDS011;1796;52.388;13.096;2023-02-01T12:58:32;11.73;;;2.60;;
3563;SDS011;1796;52.388;13.096;2023-02-01T13:01:07;10.20;;;2.10;;
3563;SDS011;1796;52.388;13.096;2023-02-01T13:03:40;4.80;;;1.93;;
3563;SDS011;1796;52.388;13.096;2023-02-01T13:06:12;7.30;;;1.70;;
3563;SDS011;1796;52.388;13.096;2023-02-01T13:08:43;11.60;;;1.93;;
3563;SDS011;1796;52.388;13.096;2023-02-01T13:11:16;14.13;;;2.10;;
3563;SDS011;1796;52.388;13.096;2023-02-01T13:13:52;6.93;;;2.20;;
3563;SDS011;1796;52.388;13.096;2023-02-01T13:16:26;8.73;;;2.47;;
3563;SDS011;1796;52.388;13.096;2023-02-01T13:19:00;4.03;;;1.70;;
3563;SDS011;1796;52.388;13.096;2023-02-01T13:21:36;10.10;;;1.97;;
3563;SDS011;1796;52.388;13.096;2023-02-01T13:24:09;5.67;;;1.97;;
3563;SDS011;1796;52.388;13.096;2023-02-01T13:26:53;9.00;;;3.90;;
3563;SDS011;1796;52.388;13.096;2023-02-01T13:29:21;21.07;;;3.57;;
3563;SDS011;1796;52.388;13.096;2023-02-01T13:31:56;13.30;;;2.67;;
3563;SDS011;1796;52.388;13.096;2023-02-01T13:34:41;9.43;;;2.53;;
3563;SDS011;1796;52.388;13.096;2023-02-01T13:40:39;5.53;;;2.17;;
3563;SDS011;1796;52.388;13.096;2023-02-01T13:43:13;11.47;;;2.23;;
3563;SDS011;1796;52.388;13.096;2023-02-01T13:45:43;7.37;;;2.10;;
3563;SDS011;1796;52.388;13.096;2023-02-01T13:48:20;12.20;;;2.60;;
3563;SDS011;1796;52.388;13.096;2023-02-01T13:50:51;10.80;;;2.37;;
3563;SDS011;1796;52.388;13.096;2023-02-01T13:53:23;9.03;;;2.13;;
3563;SDS011;1796;52.388;13.096;2023-02-01T13:55:55;6.27;;;2.43;;
3563;SDS011;1796;52.388;13.096;2023-02-01T13:58:30;8.07;;;2.20;;
3563;SDS011;1796;52.388;13.096;2023-02-01T14:04:03;7.80;;;2.40;;
3563;SDS011;1796;52.388;13.096;2023-02-01T14:06:43;8.63;;;2.30;;
3563;SDS011;1796;52.388;13.096;2023-02-01T14:09:18;16.07;;;2.97;;
3563;SDS011;1796;52.388;13.096;2023-02-01T14:11:57;13.00;;;2.50;;
3563;SDS011;1796;52.388;13.096;2023-02-01T14:14:47;17.30;;;2.40;;
3563;SDS011;1796;52.388;13.096;2023-02-01T14:23:17;14.00;;;2.80;;
3563;SDS011;1796;52.388;13.096;2023-02-01T14:26:05;6.23;;;2.00;;
3563;SDS011;1796;52.388;13.096;2023-02-01T14:28:42;6.73;;;2.70;;
3563;SDS011;1796;52.388;13.096;2023-02-01T14:31:41;16.50;;;2.30;;
3563;SDS011;1796;52.388;13.096;2023-02-01T14:34:36;10.33;;;2.90;;
3563;SDS011;1796;52.388;13.096;2023-02-01T14:37:10;16.37;;;3.60;;
3563;SDS011;1796;52.388;13.096;2023-02-01T14:39:52;10.83;;;2.27;;
3563;SDS011;1796;52.388;13.096;2023-02-01T14:42:24;7.63;;;2.10;;
3563;SDS011;1796;52.388;13.096;2023-02-01T14:44:53;8.57;;;2.73;;
3563;SDS011;1796;52.388;13.096;2023-02-01T14:47:32;13.57;;;2.37;;
3563;SDS011;1796;52.388;13.096;2023-02-01T14:50:13;8.20;;;2.00;;
3563;SDS011;1796;52.388;13.096;2023-02-01T14:52:50;4.67;;;2.53;;
3563;SDS011;1796;52.388;13.096;2023-02-01T14:55:37;14.97;;;2.30;;
3563;SDS011;1796;52.388;13.096;2023-02-01T14:58:09;3.90;;;2.13;;
3563;SDS011;1796;52.388;13.096;2023-02-01T15:00:46;7.07;;;2.50;;
3563;SDS011;1796;52.388;13.096;2023-02-01T15:06:14;15.67;;;2.10;;
3563;SDS011;1796;52.388;13.096;2023-02-01T15:08:49;4.77;;;2.13;;
3563;SDS011;1796;52.388;13.096;2023-02-01T15:11:20;6.30;;;1.90;;
3563;SDS011;1796;52.388;13.096;2023-02-01T15:13:48;7.93;;;1.83;;
3563;SDS011;1796;52.388;13.096;2023-02-01T15:16:18;8.03;;;1.87;;
3563;SDS011;1796;52.388;13.096;2023-02-01T15:18:48;5.83;;;1.90;;
3563;SDS011;1796;52.388;13.096;2023-02-01T15:21:16;15.17;;;2.03;;
3563;SDS011;1796;52.388;13.096;2023-02-01T15:23:44;6.20;;;1.70;;
3563;SDS011;1796;52.388;13.096;2023-02-01T15:26:24;5.50;;;1.70;;
3563;SDS011;1796;52.388;13.096;2023-02-01T15:28:52;5.50;;;2.00;;
3563;SDS011;1796;52.388;13.096;2023-02-01T15:31:30;7.60;;;2.03;;
3563;SDS011;1796;52.388;13.096;2023-02-01T15:33:59;5.43;;;1.47;;
3563;SDS011;1796;52.388;13.096;2023-02-01T15:36:26;10.33;;;2.23;;
3563;SDS011;1796;52.388;13.096;2023-02-01T15:41:43;7.53;;;2.10;;
3563;SDS011;1796;52.388;13.096;2023-02-01T15:44:15;6.67;;;2.40;;
3563;SDS011;1796;52.388;13.096;2023-02-01T15:46:45;8.93;;;2.30;;
3563;SDS011;1796;52.388;13.096;2023-02-01T15:49:20;6.93;;;2.20;;
3563;SDS011;1796;52.388;13.096;2023-02-01T15:51:51;13.43;;;2.93;;
3563;SDS011;1796;52.388;13.096;2023-02-01T15:54:19;5.73;;;2.03;;
3563;SDS011;1796;52.388;13.096;2023-02-01T15:56:50;9.70;;;2.60;;
3563;SDS011;1796;52.388;13.096;2023-02-01T15:59:20;5.40;;;2.23;;
3563;SDS011;1796;52.388;13.096;2023-02-01T16:01:49;6.97;;;2.90;;
3563;SDS011;1796;52.388;13.096;2023-02-01T16:04:17;9.17;;;2.60;;